createdAt,value
2022-12-04T00:00:35.847Z,15.33
2022-12-04T00:01:37.207Z,15.37
2022-12-04T00:02:38.696Z,16.10
2022-12-04T00:03:40.044Z,15.07
2022-12-04T00:04:41.445Z,15.53
2022-12-04T00:05:42.862Z,15.53
2022-12-04T00:06:44.181Z,14.53
2022-12-04T00:07:45.686Z,15.23
2022-12-04T00:08:47.864Z,15.00
2022-12-04T00:09:49.297Z,14.90
2022-12-04T00:10:50.953Z,14.87
2022-12-04T00:11:52.252Z,15.17
2022-12-04T00:12:53.651Z,14.27
2022-12-04T00:13:55.468Z,14.53
2022-12-04T00:16:19.977Z,15.00
2022-12-04T00:17:21.727Z,14.40
2022-12-04T00:18:23.073Z,15.23
2022-12-04T00:19:24.486Z,14.67
2022-12-04T00:20:26.036Z,14.37
2022-12-04T00:21:27.557Z,14.03
2022-12-04T00:22:28.881Z,13.90
2022-12-04T00:23:30.213Z,12.90
2022-12-04T00:24:31.514Z,13.97
2022-12-04T00:25:37.769Z,15.07
2022-12-04T00:26:42.230Z,13.53
2022-12-04T00:27:43.550Z,13.70
2022-12-04T00:28:44.981Z,14.40
2022-12-04T00:29:46.318Z,14.73
2022-12-04T00:30:47.660Z,14.13
2022-12-04T00:31:49.061Z,14.53
2022-12-04T00:32:50.710Z,14.10
2022-12-04T00:33:52.504Z,13.97
2022-12-04T00:34:53.844Z,14.03
2022-12-04T00:35:59.184Z,14.00
2022-12-04T00:37:00.580Z,13.67
2022-12-04T00:38:02.004Z,13.33
2022-12-04T00:39:04.011Z,14.00
2022-12-04T00:40:05.951Z,13.93
2022-12-04T00:41:08.962Z,14.40
2022-12-04T00:42:10.276Z,14.27
2022-12-04T00:43:11.714Z,14.27
2022-12-04T00:44:13.109Z,14.43
2022-12-04T00:45:14.557Z,14.07
2022-12-04T00:46:16.241Z,14.90
2022-12-04T00:47:17.648Z,13.83
2022-12-04T00:48:18.927Z,14.50
2022-12-04T00:49:20.227Z,13.60
2022-12-04T00:50:21.579Z,14.30
2022-12-04T00:51:24.772Z,14.20
2022-12-04T00:52:28.221Z,14.37
2022-12-04T00:53:29.537Z,14.80
2022-12-04T00:54:31.282Z,14.43
2022-12-04T00:55:32.672Z,14.97
2022-12-04T00:56:34.086Z,14.23
2022-12-04T00:57:35.543Z,13.63
2022-12-04T00:58:36.916Z,14.70
2022-12-04T00:59:38.383Z,14.70
2022-12-04T01:00:43.237Z,14.87
2022-12-04T01:01:44.679Z,14.53
2022-12-04T01:02:46.177Z,14.40
2022-12-04T01:03:48.030Z,14.53
2022-12-04T01:04:49.336Z,14.57
2022-12-04T01:05:50.677Z,14.90
2022-12-04T01:06:52.005Z,14.63
2022-12-04T01:07:53.745Z,15.03
2022-12-04T01:08:56.226Z,15.23
2022-12-04T01:09:57.782Z,13.97
2022-12-04T01:10:59.416Z,15.17
2022-12-04T01:12:00.770Z,15.50
2022-12-04T01:13:02.093Z,14.50
2022-12-04T01:14:03.564Z,14.63
2022-12-04T01:15:05.711Z,14.43
2022-12-04T01:16:07.274Z,15.17
2022-12-04T01:17:08.615Z,14.23
2022-12-04T01:18:10.777Z,15.23
2022-12-04T01:19:12.397Z,13.87
2022-12-04T01:20:14.522Z,15.33
2022-12-04T01:21:16.239Z,14.80
2022-12-04T01:22:17.555Z,15.47
2022-12-04T01:23:19.318Z,14.67
2022-12-04T01:24:20.624Z,15.40
2022-12-04T01:25:22.006Z,15.63
2022-12-04T01:26:23.313Z,15.80
2022-12-04T01:27:24.670Z,15.13
2022-12-04T01:28:26.324Z,15.27
2022-12-04T01:29:27.623Z,15.90
2022-12-04T01:30:28.999Z,14.73
2022-12-04T01:31:30.780Z,16.07
2022-12-04T01:32:32.170Z,14.20
2022-12-04T01:33:34.551Z,15.60
2022-12-04T01:34:36.193Z,15.37
2022-12-04T01:35:37.517Z,15.03
2022-12-04T01:36:38.808Z,14.67
2022-12-04T01:37:40.112Z,14.30
2022-12-04T01:38:41.667Z,14.17
2022-12-04T01:39:43.008Z,14.37
2022-12-04T01:40:44.509Z,14.83
2022-12-04T01:41:45.809Z,15.13
2022-12-04T01:42:47.116Z,14.57
2022-12-04T01:44:24.055Z,14.97
2022-12-04T01:45:31.051Z,15.43
2022-12-04T01:46:32.426Z,14.67
2022-12-04T01:47:33.769Z,16.23
2022-12-04T01:48:37.485Z,15.27
2022-12-04T01:49:38.775Z,14.50
2022-12-04T01:50:41.083Z,15.13
2022-12-04T01:51:45.185Z,15.27
2022-12-04T01:52:46.563Z,15.13
2022-12-04T01:53:59.221Z,14.83
2022-12-04T01:55:01.024Z,15.70
2022-12-04T01:56:03.154Z,15.80
2022-12-04T01:57:08.028Z,15.17
2022-12-04T01:58:09.833Z,15.13
2022-12-04T01:59:12.463Z,15.43
2022-12-04T02:00:14.725Z,15.53
2022-12-04T02:01:16.136Z,15.87
2022-12-04T02:02:19.348Z,15.77
2022-12-04T02:03:20.992Z,14.80
2022-12-04T02:04:22.310Z,15.70
2022-12-04T02:05:23.729Z,15.67
2022-12-04T02:06:25.047Z,15.23
2022-12-04T02:07:26.616Z,16.07
2022-12-04T02:08:28.468Z,15.53
2022-12-04T02:09:30.923Z,16.30
2022-12-04T02:10:39.623Z,15.27
2022-12-04T02:11:45.578Z,15.73
2022-12-04T02:13:02.759Z,15.10
2022-12-04T02:14:10.446Z,15.13
2022-12-04T02:15:20.851Z,15.73
2022-12-04T02:16:33.589Z,15.03
2022-12-04T02:17:53.762Z,14.50
2022-12-04T02:19:14.732Z,15.03
2022-12-04T02:20:25.215Z,14.77
2022-12-04T02:21:35.651Z,15.20
2022-12-04T02:22:49.480Z,16.03
2022-12-04T02:23:58.033Z,15.33
2022-12-04T02:25:11.548Z,15.67
2022-12-04T02:26:31.508Z,14.93
2022-12-04T02:27:38.933Z,15.60
2022-12-04T02:28:44.546Z,15.07
2022-12-04T02:30:11.988Z,14.60
2022-12-04T02:31:16.354Z,15.17
2022-12-04T02:32:17.718Z,15.17
2022-12-04T02:33:20.599Z,14.70
2022-12-04T02:34:22.005Z,14.60
2022-12-04T02:35:26.354Z,15.03
2022-12-04T02:36:29.760Z,15.43
2022-12-04T02:37:43.900Z,16.27
2022-12-04T02:38:48.795Z,15.10
2022-12-04T02:39:54.036Z,15.60
2022-12-04T02:41:01.102Z,15.50
2022-12-04T02:42:12.749Z,15.13
2022-12-04T02:43:17.650Z,15.13
2022-12-04T02:44:23.737Z,14.60
2022-12-04T02:45:27.025Z,14.60
2022-12-04T02:46:37.472Z,14.67
2022-12-04T02:47:39.827Z,14.73
2022-12-04T02:48:42.799Z,15.10
2022-12-04T02:49:45.936Z,15.37
2022-12-04T02:50:49.113Z,14.77
2022-12-04T02:51:50.590Z,15.03
2022-12-04T02:52:57.335Z,16.27
2022-12-04T02:54:01.045Z,15.27
2022-12-04T02:55:08.677Z,15.67
2022-12-04T02:56:12.641Z,15.30
2022-12-04T02:57:17.075Z,15.43
2022-12-04T02:58:38.752Z,15.80
2022-12-04T02:59:42.224Z,14.37
2022-12-04T03:00:45.253Z,16.57
2022-12-04T03:01:49.692Z,14.97
2022-12-04T03:03:09.865Z,14.87
2022-12-04T03:04:14.297Z,14.67
2022-12-04T03:05:17.364Z,14.10
2022-12-04T03:06:19.467Z,14.80
2022-12-04T03:07:24.966Z,15.23
2022-12-04T03:08:28.922Z,14.67
2022-12-04T03:09:35.001Z,14.80
2022-12-04T03:10:38.371Z,14.43
2022-12-04T03:11:43.151Z,14.53
2022-12-04T03:12:53.191Z,13.90
2022-12-04T03:14:01.815Z,13.63
2022-12-04T03:15:12.548Z,13.53
2022-12-04T03:16:16.148Z,13.50
2022-12-04T03:17:22.750Z,13.57
2022-12-04T03:18:27.416Z,13.33
2022-12-04T03:19:34.337Z,13.03
2022-12-04T03:20:36.901Z,13.33
2022-12-04T03:21:40.380Z,14.03
2022-12-04T03:22:44.024Z,12.97
2022-12-04T03:23:50.125Z,14.40
2022-12-04T03:24:52.825Z,13.30
2022-12-04T03:25:57.689Z,14.63
2022-12-04T03:27:17.868Z,13.00
2022-12-04T03:28:24.243Z,13.70
2022-12-04T03:29:30.935Z,13.20
2022-12-04T03:30:36.653Z,13.87
2022-12-04T03:31:41.094Z,14.50
2022-12-04T03:33:03.819Z,14.57
2022-12-04T03:34:05.958Z,14.50
2022-12-04T03:35:16.440Z,14.47
2022-12-04T03:36:17.784Z,14.20
2022-12-04T03:37:23.325Z,13.70
2022-12-04T03:38:37.361Z,14.57
2022-12-04T03:39:45.497Z,13.90
2022-12-04T03:40:52.895Z,13.93
2022-12-04T03:42:03.434Z,14.20
2022-12-04T03:43:20.548Z,14.27
2022-12-04T03:44:40.446Z,14.23
2022-12-04T03:45:50.949Z,14.30
2022-12-04T03:46:55.764Z,13.67
2022-12-04T03:48:00.826Z,14.70
2022-12-04T03:49:02.098Z,14.17
2022-12-04T03:50:06.864Z,13.30
2022-12-04T03:51:13.780Z,13.50
2022-12-04T03:52:20.538Z,13.80
2022-12-04T03:53:37.264Z,13.67
2022-12-04T03:54:43.327Z,13.67
2022-12-04T03:56:04.966Z,14.20
2022-12-04T03:57:08.629Z,13.77
2022-12-04T03:58:12.856Z,14.57
2022-12-04T03:59:43.283Z,13.13
2022-12-04T04:00:45.043Z,13.40
2022-12-04T04:01:48.536Z,13.20
2022-12-04T04:02:59.688Z,13.23
2022-12-04T04:04:03.394Z,13.93
2022-12-04T04:05:06.951Z,14.33
2022-12-04T04:06:11.174Z,13.63
2022-12-04T04:07:19.996Z,13.30
2022-12-04T04:08:26.636Z,12.73
2022-12-04T04:09:31.226Z,13.53
2022-12-04T04:10:32.608Z,13.87
2022-12-04T04:11:33.954Z,13.53
2022-12-04T04:12:37.954Z,13.33
2022-12-04T04:14:18.801Z,13.43
2022-12-04T04:15:38.544Z,12.73
2022-12-04T04:17:00.134Z,13.27
2022-12-04T04:18:20.482Z,13.77
2022-12-04T04:19:41.062Z,13.30
2022-12-04T04:21:03.494Z,12.43
2022-12-04T04:22:25.844Z,13.40
2022-12-04T04:23:48.130Z,12.60
2022-12-04T04:24:57.051Z,13.17
2022-12-04T04:25:59.505Z,14.03
2022-12-04T04:27:01.686Z,13.07
2022-12-04T04:28:03.027Z,13.53
2022-12-04T04:29:04.334Z,12.80
2022-12-04T04:30:06.764Z,13.10
2022-12-04T04:31:19.964Z,13.37
2022-12-04T04:32:21.301Z,14.13
2022-12-04T04:33:23.199Z,13.47
2022-12-04T04:34:24.529Z,13.27
2022-12-04T04:35:34.730Z,14.20
2022-12-04T04:36:43.781Z,13.47
2022-12-04T04:37:51.163Z,13.73
2022-12-04T04:38:59.457Z,12.70
2022-12-04T04:40:21.938Z,13.73
2022-12-04T04:41:27.296Z,13.67
2022-12-04T04:42:29.808Z,13.60
2022-12-04T04:43:42.962Z,13.23
2022-12-04T04:44:45.674Z,13.33
2022-12-04T04:45:46.981Z,14.20
2022-12-04T04:46:52.538Z,13.40
2022-12-04T04:48:00.412Z,12.53
2022-12-04T04:49:03.891Z,13.93
2022-12-04T04:50:07.001Z,13.60
2022-12-04T04:51:08.431Z,13.10
2022-12-04T04:52:09.922Z,14.53
2022-12-04T04:53:13.430Z,13.20
2022-12-04T04:54:16.559Z,13.97
2022-12-04T04:55:19.432Z,13.67
2022-12-04T04:56:21.752Z,13.20
2022-12-04T04:57:27.093Z,13.00
2022-12-04T04:58:28.386Z,12.97
2022-12-04T04:59:29.666Z,12.80
2022-12-04T05:00:30.992Z,12.43
2022-12-04T05:01:32.423Z,13.53
2022-12-04T05:02:34.599Z,12.77
2022-12-04T05:03:36.006Z,12.00
2022-12-04T05:04:37.299Z,12.67
2022-12-04T05:05:38.622Z,11.47
2022-12-04T05:06:39.980Z,11.97
2022-12-04T05:07:41.378Z,12.50
2022-12-04T05:08:42.769Z,11.50
2022-12-04T05:09:44.097Z,12.17
2022-12-04T05:10:45.508Z,12.60
2022-12-04T05:11:46.811Z,12.07
2022-12-04T05:12:48.153Z,11.97
2022-12-04T05:13:49.511Z,13.00
2022-12-04T05:14:50.843Z,11.97
2022-12-04T05:15:56.153Z,13.13
2022-12-04T05:17:01.374Z,12.43
2022-12-04T05:18:03.365Z,12.87
2022-12-04T05:19:23.555Z,12.27
2022-12-04T05:20:24.895Z,12.03
2022-12-04T05:21:26.163Z,13.17
2022-12-04T05:22:29.343Z,13.97
2022-12-04T05:23:30.658Z,12.37
2022-12-04T05:24:31.959Z,11.77
2022-12-04T05:25:33.426Z,12.10
2022-12-04T05:26:34.805Z,12.17
2022-12-04T05:27:36.263Z,11.87
2022-12-04T05:28:37.817Z,11.70
2022-12-04T05:29:39.367Z,11.73
2022-12-04T05:30:41.744Z,12.80
2022-12-04T05:31:43.133Z,12.03
2022-12-04T05:32:44.510Z,12.53
2022-12-04T05:33:45.873Z,12.33
2022-12-04T05:34:48.261Z,12.13
2022-12-04T05:36:02.927Z,11.70
2022-12-04T05:37:04.255Z,12.20
2022-12-04T05:38:05.596Z,11.60
2022-12-04T05:39:06.926Z,12.03
2022-12-04T05:40:08.484Z,11.23
2022-12-04T05:41:09.790Z,12.03
2022-12-04T05:42:11.152Z,11.90
2022-12-04T05:43:12.542Z,11.13
2022-12-04T05:44:13.905Z,11.47
2022-12-04T05:45:15.221Z,11.13
2022-12-04T05:46:16.801Z,12.07
2022-12-04T05:47:18.239Z,11.37
2022-12-04T05:48:19.556Z,12.27
2022-12-04T05:49:20.832Z,12.20
2022-12-04T05:50:22.130Z,11.53
2022-12-04T05:51:23.442Z,10.57
2022-12-04T05:52:24.759Z,10.93
2022-12-04T05:53:26.114Z,11.60
2022-12-04T05:54:27.549Z,12.03
2022-12-04T05:55:28.875Z,11.60
2022-12-04T05:56:30.284Z,11.20
2022-12-04T05:57:31.609Z,11.83
2022-12-04T05:58:36.691Z,10.63
2022-12-04T05:59:37.973Z,10.73
2022-12-04T06:00:39.333Z,10.73
2022-12-04T06:01:41.003Z,10.37
2022-12-04T06:02:45.219Z,11.20
2022-12-04T06:03:46.870Z,10.83
2022-12-04T06:04:48.193Z,10.63
2022-12-04T06:05:49.479Z,11.00
2022-12-04T06:06:50.792Z,11.07
2022-12-04T06:07:52.281Z,11.37
2022-12-04T06:08:55.006Z,11.40
2022-12-04T06:09:56.625Z,10.70
2022-12-04T06:10:58.208Z,12.13
2022-12-04T06:11:59.624Z,11.73
2022-12-04T06:13:00.997Z,11.13
2022-12-04T06:14:03.315Z,11.40
2022-12-04T06:15:04.962Z,12.10
2022-12-04T06:16:06.351Z,12.60
2022-12-04T06:17:07.777Z,12.07
2022-12-04T06:18:09.255Z,11.87
2022-12-04T06:19:12.047Z,12.20
2022-12-04T06:20:13.530Z,12.10
2022-12-04T06:21:14.885Z,11.73
2022-12-04T06:22:16.211Z,11.20
2022-12-04T06:23:17.805Z,11.50
2022-12-04T06:24:21.569Z,11.33
2022-12-04T06:25:22.881Z,11.67
2022-12-04T06:26:24.608Z,11.80
2022-12-04T06:27:27.724Z,11.40
2022-12-04T06:28:29.725Z,10.93
2022-12-04T06:29:31.303Z,11.40
2022-12-04T06:30:33.567Z,11.90
2022-12-04T06:31:36.162Z,11.80
2022-12-04T06:32:37.553Z,10.97
2022-12-04T06:33:39.334Z,10.37
2022-12-04T06:34:40.738Z,10.50
2022-12-04T06:35:42.023Z,11.33
2022-12-04T06:36:43.491Z,11.17
2022-12-04T06:37:44.858Z,11.23
2022-12-04T06:38:46.511Z,11.17
2022-12-04T06:39:47.879Z,10.83
2022-12-04T06:40:49.177Z,11.30
2022-12-04T06:41:50.483Z,11.17
2022-12-04T06:42:51.867Z,11.00
2022-12-04T06:43:53.204Z,11.67
2022-12-04T06:44:54.519Z,11.03
2022-12-04T06:46:09.657Z,11.77
2022-12-04T06:47:11.127Z,10.87
2022-12-04T06:48:12.473Z,11.10
2022-12-04T06:49:13.859Z,10.50
2022-12-04T06:50:15.205Z,11.13
2022-12-04T06:51:20.605Z,10.40
2022-12-04T06:52:21.930Z,11.03
2022-12-04T06:53:23.275Z,10.63
2022-12-04T06:54:24.605Z,11.13
2022-12-04T06:55:25.916Z,11.83
2022-12-04T06:56:29.037Z,11.13
2022-12-04T06:57:30.421Z,10.37
2022-12-04T06:58:32.028Z,10.70
2022-12-04T06:59:33.886Z,10.70
2022-12-04T07:00:35.347Z,11.33
2022-12-04T07:01:36.907Z,11.20
2022-12-04T07:02:38.375Z,11.07
2022-12-04T07:03:39.961Z,10.70
2022-12-04T07:04:41.333Z,11.20
2022-12-04T07:05:42.640Z,11.07
2022-12-04T07:06:43.968Z,10.27
2022-12-04T07:07:45.373Z,10.87
2022-12-04T07:08:48.327Z,11.23
2022-12-04T07:09:49.649Z,10.70
2022-12-04T07:10:55.805Z,10.40
2022-12-04T07:12:00.259Z,10.57
2022-12-04T07:13:01.595Z,10.53
2022-12-04T07:14:03.352Z,10.40
2022-12-04T07:15:04.915Z,10.50
2022-12-04T07:16:07.066Z,10.03
2022-12-04T07:17:08.489Z,10.37
2022-12-04T07:18:09.913Z,11.30
2022-12-04T07:19:12.728Z,10.47
2022-12-04T07:20:14.261Z,11.00
2022-12-04T07:21:17.462Z,10.13
2022-12-04T07:22:18.786Z,10.53
2022-12-04T07:23:20.178Z,10.50
2022-12-04T07:24:21.565Z,10.63
2022-12-04T07:25:22.962Z,10.67
2022-12-04T07:26:25.433Z,10.40
2022-12-04T07:27:26.737Z,10.30
2022-12-04T07:28:28.053Z,10.47
2022-12-04T07:29:29.631Z,11.60
2022-12-04T07:30:30.959Z,11.03
2022-12-04T07:31:32.370Z,10.70
2022-12-04T07:32:34.030Z,10.77
2022-12-04T07:33:35.371Z,10.37
2022-12-04T07:34:36.651Z,10.47
2022-12-04T07:35:38.019Z,10.10
2022-12-04T07:36:40.699Z,10.27
2022-12-04T07:37:42.009Z,10.63
2022-12-04T07:38:43.721Z,9.80
2022-12-04T07:39:45.004Z,10.10
2022-12-04T07:40:46.317Z,10.27
2022-12-04T07:41:47.709Z,10.27
2022-12-04T07:42:49.369Z,10.13
2022-12-04T07:43:50.785Z,10.63
2022-12-04T07:44:52.094Z,11.17
2022-12-04T07:45:53.523Z,10.20
2022-12-04T07:46:54.979Z,10.67
2022-12-04T07:47:56.343Z,9.90
2022-12-04T07:48:58.433Z,10.27
2022-12-04T07:49:59.737Z,10.63
2022-12-04T07:51:14.941Z,10.67
2022-12-04T07:52:16.254Z,10.33
2022-12-04T07:53:17.544Z,10.63
2022-12-04T07:54:18.917Z,10.97
2022-12-04T07:55:23.126Z,10.60
2022-12-04T07:56:25.091Z,10.17
2022-12-04T07:57:27.613Z,10.43
2022-12-04T07:58:28.925Z,10.17
2022-12-04T07:59:30.303Z,9.57
2022-12-04T08:00:31.692Z,9.90
2022-12-04T08:01:33.342Z,10.37
2022-12-04T08:02:34.637Z,11.00
2022-12-04T08:03:36.094Z,9.77
2022-12-04T08:04:37.846Z,10.63
2022-12-04T08:05:39.169Z,10.47
2022-12-04T08:06:40.583Z,10.93
2022-12-04T08:07:41.960Z,10.90
2022-12-04T08:08:43.332Z,10.53
2022-12-04T08:09:44.651Z,10.40
2022-12-04T08:10:46.052Z,11.60
2022-12-04T08:11:47.519Z,10.83
2022-12-04T08:12:48.812Z,10.07
2022-12-04T08:13:54.558Z,10.70
2022-12-04T08:14:55.897Z,10.63
2022-12-04T08:15:57.205Z,9.93
2022-12-04T08:16:58.581Z,10.23
2022-12-04T08:17:59.892Z,10.70
2022-12-04T08:19:01.280Z,9.87
2022-12-04T08:20:02.694Z,10.07
2022-12-04T08:21:07.840Z,10.03
2022-12-04T08:22:09.192Z,9.63
2022-12-04T08:23:10.640Z,10.80
2022-12-04T08:24:11.992Z,10.37
2022-12-04T08:25:13.313Z,11.47
2022-12-04T08:26:14.745Z,11.77
2022-12-04T08:27:16.147Z,11.20
2022-12-04T08:28:17.772Z,11.27
2022-12-04T08:29:19.193Z,11.03
2022-12-04T08:30:20.626Z,11.23
2022-12-04T08:31:23.952Z,13.10
2022-12-04T08:32:25.345Z,12.30
2022-12-04T08:33:26.707Z,12.10
2022-12-04T08:34:28.034Z,12.33
2022-12-04T08:35:29.340Z,11.33
2022-12-04T08:36:30.823Z,13.00
2022-12-04T08:37:32.198Z,12.97
2022-12-04T08:38:33.553Z,12.20
2022-12-04T08:39:34.865Z,12.00
2022-12-04T08:40:36.179Z,11.77
2022-12-04T08:41:37.464Z,11.77
2022-12-04T08:42:38.781Z,11.27
2022-12-04T08:43:40.556Z,11.40
2022-12-04T08:44:41.891Z,11.03
2022-12-04T08:45:43.278Z,11.03
2022-12-04T08:46:44.859Z,11.03
2022-12-04T08:47:52.085Z,10.47
2022-12-04T08:48:54.355Z,10.67
2022-12-04T08:49:55.980Z,10.00
2022-12-04T08:50:57.736Z,10.40
2022-12-04T08:51:59.153Z,10.70
2022-12-04T08:53:00.537Z,10.63
2022-12-04T08:54:06.415Z,9.90
2022-12-04T08:55:08.163Z,9.43
2022-12-04T08:56:09.892Z,9.97
2022-12-04T08:57:11.657Z,9.60
2022-12-04T08:58:13.131Z,10.90
2022-12-04T08:59:14.555Z,10.43
2022-12-04T09:00:15.993Z,10.27
2022-12-04T09:01:17.479Z,10.53
2022-12-04T09:02:18.913Z,10.43
2022-12-04T09:03:24.757Z,9.87
2022-12-04T09:04:29.103Z,9.10
2022-12-04T09:05:30.842Z,9.67
2022-12-04T09:06:32.214Z,9.73
2022-12-04T09:07:33.612Z,9.47
2022-12-04T09:08:35.655Z,10.10
2022-12-04T09:09:37.014Z,9.60
2022-12-04T09:10:38.794Z,9.70
2022-12-04T09:11:40.169Z,9.63
2022-12-04T09:12:41.455Z,9.97
2022-12-04T09:13:43.143Z,10.63
2022-12-04T09:14:44.545Z,10.17
2022-12-04T09:15:45.967Z,10.23
2022-12-04T09:16:47.464Z,10.63
2022-12-04T09:17:48.782Z,10.83
2022-12-04T09:18:50.782Z,9.70
2022-12-04T09:19:55.479Z,10.67
2022-12-04T09:21:00.114Z,10.33
2022-12-04T09:22:01.495Z,10.27
2022-12-04T09:23:04.686Z,10.47
2022-12-04T09:24:06.575Z,11.33
2022-12-04T09:25:07.937Z,11.00
2022-12-04T09:26:21.530Z,11.47
2022-12-04T09:27:22.872Z,11.30
2022-12-04T09:28:24.277Z,11.60
2022-12-04T09:29:26.137Z,10.07
2022-12-04T09:30:27.479Z,11.03
2022-12-04T09:31:28.941Z,10.90
2022-12-04T09:32:30.306Z,10.60
2022-12-04T09:33:32.373Z,10.27
2022-12-04T09:34:33.700Z,10.63
2022-12-04T09:35:35.023Z,10.63
2022-12-04T09:36:36.950Z,10.40
2022-12-04T09:37:38.755Z,10.43
2022-12-04T09:38:40.051Z,10.50
2022-12-04T09:39:41.398Z,10.73
2022-12-04T09:40:54.412Z,10.87
2022-12-04T09:42:01.996Z,10.87
2022-12-04T09:43:14.355Z,11.10
2022-12-04T09:44:21.397Z,10.90
2022-12-04T09:45:24.162Z,10.87
2022-12-04T09:46:34.088Z,10.30
2022-12-04T09:47:40.800Z,10.70
2022-12-04T09:48:43.617Z,10.10
2022-12-04T09:49:50.900Z,10.30
2022-12-04T09:50:53.185Z,10.03
2022-12-04T09:51:55.494Z,10.10
2022-12-04T09:53:02.321Z,9.30
2022-12-04T09:54:09.647Z,10.10
2022-12-04T09:55:14.341Z,10.40
2022-12-04T09:56:19.739Z,10.87
2022-12-04T09:57:24.953Z,10.40
2022-12-04T09:58:41.577Z,11.40
2022-12-04T09:59:43.313Z,11.27
2022-12-04T10:00:45.987Z,10.37
2022-12-04T10:02:01.238Z,10.20
2022-12-04T10:03:05.667Z,10.63
2022-12-04T10:04:08.945Z,9.80
2022-12-04T10:05:18.195Z,10.47
2022-12-04T10:06:22.647Z,10.30
2022-12-04T10:07:36.161Z,9.70
2022-12-04T10:08:37.519Z,10.40
2022-12-04T10:09:55.322Z,9.93
2022-12-04T10:11:02.537Z,10.57
2022-12-04T10:12:16.103Z,10.30
2022-12-04T10:13:29.763Z,10.67
2022-12-04T10:14:38.785Z,10.60
2022-12-04T10:15:40.087Z,10.87
2022-12-04T10:16:44.086Z,10.50
2022-12-04T10:17:51.252Z,10.53
2022-12-04T10:19:02.600Z,10.53
2022-12-04T10:20:29.955Z,10.77
2022-12-04T10:21:51.563Z,10.00
2022-12-04T10:22:58.859Z,12.00
2022-12-04T10:24:13.096Z,13.17
2022-12-04T10:25:17.141Z,12.87
2022-12-04T10:26:21.102Z,11.07
2022-12-04T10:27:51.664Z,11.33
2022-12-04T10:29:12.394Z,10.87
2022-12-04T10:30:20.015Z,10.07
2022-12-04T10:31:21.511Z,10.60
2022-12-04T10:32:25.614Z,11.10
2022-12-04T10:33:26.897Z,11.23
2022-12-04T10:34:29.663Z,11.97
2022-12-04T10:35:31.663Z,11.80
2022-12-04T10:36:33.984Z,13.07
2022-12-04T10:37:38.762Z,12.17
2022-12-04T10:38:42.975Z,11.00
2022-12-04T10:39:47.320Z,11.03
2022-12-04T10:40:52.012Z,10.43
2022-12-04T10:42:11.937Z,10.37
2022-12-04T10:43:36.317Z,11.13
2022-12-04T10:44:38.621Z,9.83
2022-12-04T10:45:40.022Z,11.00
2022-12-04T10:46:45.728Z,10.27
2022-12-04T10:47:48.599Z,10.70
2022-12-04T10:48:52.228Z,12.30
2022-12-04T10:49:57.834Z,11.60
2022-12-04T10:50:59.354Z,12.63
2022-12-04T10:52:00.825Z,12.23
2022-12-04T10:53:02.233Z,11.47
2022-12-04T10:54:14.905Z,10.83
2022-12-04T10:55:27.021Z,10.17
2022-12-04T10:56:28.352Z,10.33
2022-12-04T10:57:43.604Z,10.40
2022-12-04T10:59:04.889Z,11.07
2022-12-04T11:00:27.124Z,11.83
2022-12-04T11:01:29.640Z,11.37
2022-12-04T11:02:34.398Z,10.93
2022-12-04T11:03:36.402Z,11.07
2022-12-04T11:04:38.210Z,12.63
2022-12-04T11:05:53.160Z,12.50
2022-12-04T11:07:03.813Z,11.10
2022-12-04T11:08:06.449Z,10.70
2022-12-04T11:09:08.079Z,10.70
2022-12-04T11:10:24.864Z,10.53
2022-12-04T11:11:29.009Z,10.77
2022-12-04T11:12:31.435Z,10.13
2022-12-04T11:13:33.124Z,9.43
2022-12-04T11:14:34.789Z,10.37
2022-12-04T11:15:42.451Z,10.67
2022-12-04T11:16:45.915Z,11.00
2022-12-04T11:17:47.456Z,9.80
2022-12-04T11:18:50.352Z,10.80
2022-12-04T11:20:02.056Z,9.87
2022-12-04T11:21:03.916Z,10.33
2022-12-04T11:22:12.389Z,10.40
2022-12-04T11:23:14.874Z,12.17
2022-12-04T11:24:21.349Z,14.83
2022-12-04T11:25:23.848Z,12.97
2022-12-04T11:26:32.980Z,11.57
2022-12-04T11:27:34.818Z,12.80
2022-12-04T11:28:44.304Z,13.10
2022-12-04T11:29:46.564Z,14.87
2022-12-04T11:30:50.621Z,13.23
2022-12-04T11:31:52.974Z,18.07
2022-12-04T11:32:55.066Z,13.13
2022-12-04T11:34:07.444Z,11.87
2022-12-04T11:35:23.085Z,11.30
2022-12-04T11:36:26.606Z,12.10
2022-12-04T11:37:30.337Z,11.90
2022-12-04T11:38:34.012Z,12.47
2022-12-04T11:39:38.488Z,11.30
2022-12-04T11:40:40.144Z,12.17
2022-12-04T11:41:41.688Z,11.67
2022-12-04T11:42:42.998Z,11.10
2022-12-04T11:43:48.663Z,11.30
2022-12-04T11:44:57.438Z,11.93
2022-12-04T11:46:03.190Z,11.30
2022-12-04T11:47:05.507Z,11.43
2022-12-04T11:48:18.194Z,11.87
2022-12-04T11:49:21.253Z,12.07
2022-12-04T11:50:30.417Z,12.43
2022-12-04T11:51:41.475Z,11.80
2022-12-04T11:52:46.011Z,11.47
2022-12-04T11:54:05.309Z,11.97
2022-12-04T11:55:06.784Z,11.87
2022-12-04T11:56:08.355Z,12.30
2022-12-04T11:57:09.628Z,12.20
2022-12-04T11:58:10.940Z,12.83
2022-12-04T11:59:20.508Z,12.43
2022-12-04T12:00:22.769Z,11.90
2022-12-04T12:01:24.610Z,12.37
2022-12-04T12:02:26.012Z,19.37
2022-12-04T12:03:33.822Z,14.67
2022-12-04T12:04:54.055Z,13.70
2022-12-04T12:05:58.292Z,12.53
2022-12-04T12:07:05.767Z,12.10
2022-12-04T12:08:10.108Z,12.07
2022-12-04T12:09:17.403Z,12.53
2022-12-04T12:10:28.984Z,12.37
2022-12-04T12:11:40.940Z,11.30
2022-12-04T12:13:01.329Z,12.60
2022-12-04T12:14:02.753Z,12.40
2022-12-04T12:15:04.084Z,12.23
2022-12-04T12:16:24.943Z,12.13
2022-12-04T12:17:32.164Z,12.43
2022-12-04T12:18:46.259Z,12.77
2022-12-04T12:20:04.527Z,11.53
2022-12-04T12:21:09.108Z,12.90
2022-12-04T12:22:26.010Z,12.50
2022-12-04T12:23:42.706Z,12.23
2022-12-04T12:24:55.480Z,13.07
2022-12-04T12:26:08.086Z,12.60
2022-12-04T12:27:30.052Z,12.00
2022-12-04T12:28:51.040Z,12.67
2022-12-04T12:30:03.430Z,15.73
2022-12-04T12:31:23.481Z,13.50
2022-12-04T12:32:28.351Z,12.43
2022-12-04T12:33:32.924Z,12.37
2022-12-04T12:34:34.370Z,11.33
2022-12-04T12:35:54.666Z,11.67
2022-12-04T12:37:00.669Z,12.03
2022-12-04T12:38:04.917Z,13.73
2022-12-04T12:39:35.338Z,13.90
2022-12-04T12:40:42.489Z,13.17
2022-12-04T12:41:50.272Z,13.30
2022-12-04T12:43:02.769Z,13.03
2022-12-04T12:44:13.438Z,13.10
2022-12-04T12:45:23.982Z,12.63
2022-12-04T12:46:31.510Z,13.80
2022-12-04T12:47:43.679Z,17.63
2022-12-04T12:48:45.113Z,13.33
2022-12-04T12:49:49.133Z,13.40
2022-12-04T12:51:14.907Z,14.03
2022-12-04T12:52:21.491Z,12.90
2022-12-04T12:53:25.137Z,13.97
2022-12-04T12:54:30.855Z,14.33
2022-12-04T12:55:35.009Z,14.47
2022-12-04T12:56:43.368Z,14.80
2022-12-04T12:57:50.882Z,14.00
2022-12-04T12:58:57.453Z,15.27
2022-12-04T13:00:02.237Z,15.03
2022-12-04T13:01:11.040Z,14.93
2022-12-04T13:02:22.522Z,14.73
2022-12-04T13:03:33.158Z,13.83
2022-12-04T13:04:40.072Z,13.73
2022-12-04T13:05:45.124Z,14.20
2022-12-04T13:06:48.577Z,13.80
2022-12-04T13:07:53.128Z,13.87
2022-12-04T13:09:13.417Z,14.47
2022-12-04T13:10:24.124Z,15.10
2022-12-04T13:11:25.886Z,14.07
2022-12-04T13:12:27.864Z,14.43
2022-12-04T13:13:31.603Z,14.37
2022-12-04T13:14:33.055Z,14.50
2022-12-04T13:15:46.462Z,14.83
2022-12-04T13:16:53.858Z,13.47
2022-12-04T13:17:55.982Z,14.60
2022-12-04T13:19:15.886Z,14.20
2022-12-04T13:20:21.980Z,14.53
2022-12-04T13:21:26.383Z,14.73
2022-12-04T13:22:36.933Z,14.60
2022-12-04T13:24:13.932Z,14.23
2022-12-04T13:25:24.168Z,15.50
2022-12-04T13:26:47.778Z,15.07
2022-12-04T13:27:53.830Z,14.17
2022-12-04T13:29:03.689Z,14.70
2022-12-04T13:30:11.374Z,16.43
2022-12-04T13:31:21.168Z,14.73
2022-12-04T13:32:28.334Z,14.67
2022-12-04T13:33:30.048Z,14.47
2022-12-04T13:34:34.493Z,15.90
2022-12-04T13:35:35.886Z,16.00
2022-12-04T13:36:57.574Z,15.77
2022-12-04T13:38:15.920Z,14.47
2022-12-04T13:39:20.065Z,14.93
2022-12-04T13:40:50.989Z,15.70
2022-12-04T13:42:02.602Z,15.50
2022-12-04T13:43:30.375Z,14.97
2022-12-04T13:44:32.650Z,15.27
2022-12-04T13:45:34.172Z,14.23
2022-12-04T13:46:48.348Z,14.03
2022-12-04T13:47:56.571Z,14.67
2022-12-04T13:49:25.082Z,15.10
2022-12-04T13:50:30.940Z,15.10
2022-12-04T13:51:37.202Z,14.30
2022-12-04T13:52:40.902Z,15.43
2022-12-04T13:53:43.280Z,15.47
2022-12-04T13:54:56.253Z,15.50
2022-12-04T13:56:01.899Z,14.60
2022-12-04T13:57:16.783Z,16.10
2022-12-04T13:58:18.300Z,15.43
2022-12-04T13:59:21.997Z,16.20
2022-12-04T14:00:31.405Z,17.90